Washington, DC (20553)

8:21 PM EDT on October 01, 2014 (GMT -0400)
H Street Corridor - NoMa | Change Station
CLOSE
Current Station
Personal Weather Station
Location: Washington, DC
Elevation: 56 ft
Nearby Weather Stations

Elev 56 ft 38.90 °N, 77.00 °W | Updated 8 seconds ago

Scattered Clouds
Scattered Clouds
67.1 °F
Feels Like 67.1 °F
N
0.0
Wind Variable Wind from NE
Gusts 1.0 mph

Today
High -- | Low -- °F
--% Chance of Precip.
Yesterday
High -- | Low -- °F
Precip. -- in
7:04 AM 6:50 PM
First Quarter, 52% visible
Pressure 29.89 in
Visibility 10.0 miles
Clouds Few 3400 ft
Scattered Clouds 5500 ft
Dew Point 61 °F
Humidity 82%
Rainfall 0.02 in
Snow Depth Not available.
UV 0 out of 12
Pollen 2.90 out of 12
Air Quality Not available.
Flu Activity Not available.
METAR KDCA 302352Z 19004KT 10SM FEW034 SCT055 22/17 A2989 RMK AO2 SLP122 T02220167 10261 20217 53007

More Conditions Fewer Conditions

Pressure 29.89 in
Visibility 10.0 miles
Clouds Few 3400 ft
Scattered Clouds 5500 ft
Dew Point 61 °F
Humidity 82%
Rainfall 0.02 in
Snow Depth Not available.
UV 0 out of 12
Pollen 2.90 out of 12
Air Quality Not available.
Flu Activity Not available.
METAR KDCA 302352Z 19004KT 10SM FEW034 SCT055 22/17 A2989 RMK AO2 SLP122 T02220167 10261 20217 53007

More Conditions Fewer Conditions

10-Day Weather Forecast

Almanac

Astronomy

Oct. 01, 2014 Rise Set
Actual Time 7:04 AM EDT 6:50 PM EDT
Civil Twilight 6:37 AM EDT 7:17 PM EDT
Nautical Twilight 6:06 AM EDT 7:48 PM EDT
Astronomical Twilight 5:35 AM EDT 8:19 PM EDT
Moon 2:00 PM EDT (10/1) No Moon Set
Length of Visible Light 12h 39m
Length of Day
11h 46m
Tomorrow will be 2m 31s shorter.
First Quarter, 52% of the Moon is Illuminated
Today
First Quarter
Oct 8
Full
Oct 15
Last Quarter
Oct 23
New
Oct 30
First Quarter

Today's Extremes

State Highs State Lows

Community

WunderPhotos

Upload Photos

1,758,097 photos uploaded!

WunderBlogs® & News

Nearby

Snow Depth

Station Depth Elevation
No new snow has been reported.

Earthquake Activity

City Distance Mag. Time & Date
No recent earthquake activity has been reported nearby.
Minimum magnitude displayed is 2.5.

Coastal Water Temperatures

Place Temperature
Washington, DC 71.1 °F
Baltimore, MD 73.9 °F
Solomons Island, MD 73.0 °F

Nearby Weather Stations